Tropical Cyclones
[Index]
Main Index Home Page Stock Weather Photos Extreme Storms Discussion Storm News and Storm Chasing Reports Tropical Cyclones / Hurricanes / Typhoons Weather Data and Links Wild Fires / Bushfires Weather Observation Techniques Weather Picture Catalogue Tornado Pictures and Reports Stock Video Footage and DVDs for sale
Season 2011-2012 Tropical Cyclone GIOVANNA Track Map
Season 2011-2012 Summaries (Operational Data): [AU] [SIO] [SPAC] [SH]
<<- Previous TC | 2011-2012 Season | Next TC ->>

click for intensity scale information  Lat/long Grid: Show Hide

 Date Labels: Show Hide

Operational Tropical Cyclone Data : JTWC Advisories

Name: GIOVANNA
Number: 1212

07 Feb 2012 18:00 UTC to 21 Feb 2012 17:00 UTC

    date/time    lat    long     hPa   cat  kts
2012-02-07 18   12.6    71.7    1010         15          
2012-02-08 00   12.8    71.1    1010         15          
2012-02-08 06   13.0    70.5    1010         15          
2012-02-08 12   13.3    69.3    1010         15          
2012-02-08 18   13.6    68.2    1004         25          
2012-02-09 00   13.9    67.1    1000         30          
2012-02-09 06   13.9    66.1    1000         30          
2012-02-09 12   14.0    65.4     996    1    35          
2012-02-09 18   14.4    64.4     989    1    45          
2012-02-10 00   14.8    63.6     985    2    50          
2012-02-10 06   15.4    62.4     982    2    55          
2012-02-10 12   15.6    61.6     956    4    90          
2012-02-10 18   16.0    61.0     941    5   110          
2012-02-11 00   16.7    60.1     933    5   120          
2012-02-11 06   17.0    59.4     937    5   115          
2012-02-11 12   17.2    59.0     944    4   105          
2012-02-11 18   17.4    58.4     948    4   100          
2012-02-12 00   17.5    57.9     948    4   100          
2012-02-12 06   17.6    57.6     948    4   100          
2012-02-12 12   17.7    56.6     948    4   100          
2012-02-12 18   18.0    55.4     933    5   120          
2012-02-13 00   18.1    53.9     929    5   125          
2012-02-13 06   18.3    52.7     929    5   125          
2012-02-13 12   18.7    51.5     929    5   125          
2012-02-13 18   19.1    50.3     937    5   115          
2012-02-14 00   19.1    48.7     952    4    95          
2012-02-14 06   19.2    46.8     989    1    45          
2012-02-14 12   19.3    45.3     996    1    35          
2012-02-14 18   20.1    44.1     996    1    35          
2012-02-15 00   21.5    43.1     993    1    40          
2012-02-15 06   22.4    42.3     993    1    40          
2012-02-15 12   23.4    41.5     989    1    45          
2012-02-15 18   24.1    41.0     985    2    50          
2012-02-16 00   24.3    40.9     985    2    50          
2012-02-16 06   24.5    40.9     982    2    55          
2012-02-16 12   24.9    41.6     982    2    55          
2012-02-16 18   25.4    42.1     982    2    55          
2012-02-17 00   25.5    42.6     985    2    50          
2012-02-17 06   25.7    42.9     982    2    55          
2012-02-17 12   25.8    43.1     982    2    55          
2012-02-17 18   26.2    42.9     989    1    45          
2012-02-18 00   26.4    43.1     982    2    55          
2012-02-18 06   26.4    43.6     978    2    60          
2012-02-18 12   26.5    44.6     978    2    60          
2012-02-18 18   26.5    45.8     974    3    65          
2012-02-19 00   26.1    47.1     970    3    70          
2012-02-19 06   25.9    48.9     963    3    80          
2012-02-19 12   26.0    50.5     959    3    85          
2012-02-19 18   26.1    52.0     967    3    75          
2012-02-20 00   26.2    53.2     974    3    65          
2012-02-20 06   25.8    53.5     978    2    60          
2012-02-20 12   25.0    53.1     989    1    45          
2012-02-20 18   24.1    52.8     996    1    35          
2012-02-21 00   23.4    52.6    1000         30          
2012-02-21 06   22.9    52.3    1000         30          
2012-02-21 12   22.6    52.2    1000         30          
2012-02-21 14   22.2    52.3                             
2012-02-21 17   21.6    52.3                             
Winds are 10-min average.

Tropical cyclone tracks developed by Michael Bath using operational warnings and advisories and Google Maps.


[Australian Severe Weather index] [Copyright Notice] [Email Contacts] [Search This Site] [Privacy Policy]
Document: tropical_cyclone_giovanna.htm Updated: 2 May 2017